Rudyard, Montana
Current Conditions -  °F | °C
As of 3:53 PM on Friday 19 Dec 2014 (Local Time) from KHVR Reporting Station
Clear Clear  
Wind Chill: 23°   Ceiling: Unl
Heat Index: 30°   Visibility: 10mi
Dew Point: 26°   Wind: 7mph
Humidity: 85%   Direction: 90°E
Pressure: 29.79"   Gusts: NA
Location:  48.56°N, 110.56°W
Report Text: KHVR 192253Z AUTO 09006KT 10SM CLR M01/M03 A2979 RMK AO2 SLP117 T10111033
Loading
Personal Weather Stations






























Interactive Weather Map New forecast layout! Learn more

10-Day Weather Forecast

Advertisements
Track Severe Weather on mobile